Karol W — 9HA3715 — position and weather

sailwx.info

Track history (hours):
 
Tides and Currents Weather Stations Pressure Air Temp Water Temp Dewpoint Dewpoint Depression Visibility Wind Speed Wind Dir Waves Ship Positions

Karol W

Last reported at 2017-Sep-22 02:00 UTC. Time now 2017-Sep-22 02:42 UTC.
Position S 05°20' E 011°25'.

Length 54 m; draft 2.1 m.

Type: Ship. MMSI: 229915000.

Date/timePositionNaut miles runAvg speedWind from/ knotsBaromVisibWave heightAir tempDewpointWater temp
2017-Sep-22 02:00S 05°20' E 011°25'0 0.4
2017-Sep-22 01:30S 05°20' E 011°25'0 0.5
2017-Sep-22 01:00S 05°20' E 011°25'0 0.4
2017-Sep-22 00:30S 05°20' E 011°25'0 0.6
2017-Sep-22 00:00S 05°20' E 011°25'0 0.2
2017-Sep-21 23:30S 05°20' E 011°25'0 0.5
2017-Sep-21 22:59S 05°20' E 011°25'0 0.7
2017-Sep-21 22:30S 05°21' E 011°24'0 0.4
2017-Sep-21 22:00S 05°21' E 011°24'0 0.3
2017-Sep-21 21:30S 05°21' E 011°24'0 0.8
2017-Sep-21 21:00S 05°21' E 011°25'0 0.9
2017-Sep-21 20:30S 05°21' E 011°25'2 3.2
2017-Sep-21 20:00S 05°19' E 011°24'0 0.8
2017-Sep-21 19:30S 05°20' E 011°25'0 0.7
2017-Sep-21 19:00S 05°20' E 011°25'0 0.9
2017-Sep-21 18:30S 05°20' E 011°25'1 1.1
2017-Sep-21 18:00S 05°21' E 011°25'1 1.1
2017-Sep-21 17:30S 05°21' E 011°26'1 1.9
2017-Sep-21 17:00S 05°20' E 011°25'1 1.6
2017-Sep-21 16:30S 05°20' E 011°24'1 1.0
2017-Sep-21 16:00S 05°20' E 011°25'1 1.1
2017-Sep-21 15:30S 05°20' E 011°25'0 0.4
2017-Sep-21 15:00S 05°20' E 011°25'1 2.5
2017-Sep-21 14:30S 05°20' E 011°24'0 0.9
2017-Sep-21 13:59S 05°20' E 011°24'1 1.2
2017-Sep-21 13:30S 05°20' E 011°25'2 3.1
2017-Sep-21 13:00S 05°19' E 011°24'2 3.2
2017-Sep-21 12:30S 05°20' E 011°25'1 1.1
2017-Sep-21 12:00S 05°20' E 011°25'0 0.5
2017-Sep-21 11:30S 05°20' E 011°25'1 2.5
2017-Sep-21 11:00S 05°20' E 011°24'1 1.1
2017-Sep-21 10:29S 05°20' E 011°25'1 1.1
2017-Sep-21 10:00S 05°20' E 011°25'1 1.1
2017-Sep-21 08:57S 05°21' E 011°26'2 4.6
2017-Sep-21 08:30S 05°20' E 011°24'0 0.1
2017-Sep-21 08:00S 05°20' E 011°24'1 1.1
2017-Sep-21 07:30S 05°20' E 011°25'1 1.1
2017-Sep-21 06:59S 05°20' E 011°25'1 1.5
2017-Sep-21 06:30S 05°20' E 011°25'0 1.0
2017-Sep-21 05:59S 05°20' E 011°24'0 0.7
2017-Sep-21 05:30S 05°20' E 011°25'0 0.8
2017-Sep-21 05:00S 05°20' E 011°25'0 0.9
2017-Sep-21 04:27S 05°20' E 011°26'1 2.8
2017-Sep-21 04:00S 05°20' E 011°24'0 0.4
2017-Sep-21 03:29S 05°20' E 011°25'0 0.9
2017-Sep-21 03:00S 05°20' E 011°25'0 0.9
2017-Sep-21 02:29S 05°20' E 011°25'0 0.9
2017-Sep-21 02:00S 05°21' E 011°26'1 2.3
2017-Sep-21 01:30S 05°20' E 011°25'0 0.4
2017-Sep-21 00:59S 05°20' E 011°25'1 1.1
2017-Sep-21 00:27S 05°20' E 011°25'1 1.0
2017-Sep-20 23:43S 05°20' E 011°26'0 0.2
2017-Sep-20 23:29S 05°20' E 011°26'2 3.4
2017-Sep-20 23:00S 05°20' E 011°24'0 0.7
2017-Sep-20 22:30S 05°20' E 011°25'0 0.3
2017-Sep-20 22:00S 05°20' E 011°25'0 0.8
2017-Sep-20 21:30S 05°20' E 011°24'0 0.4
2017-Sep-20 21:00S 05°20' E 011°25'0 0.3
2017-Sep-20 20:30S 05°20' E 011°25'0 0.3
2017-Sep-20 20:00S 05°20' E 011°25'814.5
2017-Sep-20 19:29S 05°14' E 011°30'917.7
2017-Sep-20 18:59S 05°08' E 011°36'8 1.2
2017-Sep-20 12:19S 05°14' E 011°31'516.2
2017-Sep-20 12:00S 05°17' E 011°28'4 8.3
2017-Sep-20 11:30S 05°21' E 011°25'1 1.4
2017-Sep-20 11:00S 05°21' E 011°24'1 1.1
2017-Sep-20 10:30S 05°21' E 011°25'2 4.3
2017-Sep-20 10:00S 05°23' E 011°26'0 0.1
2017-Sep-20 09:30S 05°23' E 011°26'3 6.6
2017-Sep-20 09:00S 05°20' E 011°24'1 1.1
2017-Sep-20 08:30S 05°20' E 011°25'0 0.6
2017-Sep-20 08:00S 05°20' E 011°25'1 1.6
2017-Sep-20 07:30S 05°20' E 011°24'1 1.1
2017-Sep-20 07:00S 05°20' E 011°25'1 0.9
2017-Sep-20 06:21S 05°20' E 011°26'1 2.2
2017-Sep-20 06:00S 05°20' E 011°25'0 0.2
2017-Sep-20 05:30S 05°20' E 011°25'1 1.3
2017-Sep-20 04:50S 05°20' E 011°26'1 2.1
2017-Sep-20 04:30S 05°20' E 011°25'0 0.7
2017-Sep-20 04:00S 05°20' E 011°25'1 1.2
2017-Sep-20 03:28S 05°20' E 011°25'1 1.1
2017-Sep-20 02:45S 05°20' E 011°26'1 2.5
2017-Sep-20 02:29S 05°20' E 011°25'1 2.9
2017-Sep-20 02:00S 05°20' E 011°24'0 0.6
2017-Sep-20 01:30S 05°20' E 011°24'0 1.0
2017-Sep-20 01:00S 05°20' E 011°25'1 1.1
2017-Sep-20 00:28S 05°20' E 011°25'1 1.0
2017-Sep-19 23:55S 05°20' E 011°26'1 1.5
2017-Sep-19 23:30S 05°20' E 011°25'1 2.7
2017-Sep-19 23:00S 05°20' E 011°24'0 0.5
2017-Sep-19 22:30S 05°20' E 011°24'1 1.3
2017-Sep-19 22:00S 05°20' E 011°25'1 1.2
2017-Sep-19 21:29S 05°20' E 011°25'1 1.8
2017-Sep-19 21:00S 05°20' E 011°25'0 0.8
2017-Sep-19 20:30S 05°20' E 011°24'1 1.2
2017-Sep-19 20:00S 05°20' E 011°25'1 1.0
2017-Sep-19 19:29S 05°20' E 011°24'0 0.1
2017-Sep-19 19:00S 05°20' E 011°24'1 1.0
2017-Sep-19 18:30S 05°19' E 011°24'3 5.2
2017-Sep-19 18:00S 05°17' E 011°23'0 0.4
2017-Sep-19 17:30S 05°17' E 011°23'0 0.0
2017-Sep-19 17:00S 05°17' E 011°23'0 0.0
2017-Sep-19 16:30S 05°17' E 011°23'0 0.0
2017-Sep-19 16:00S 05°17' E 011°23'0 0.1
2017-Sep-19 15:30S 05°17' E 011°23'0 0.4
2017-Sep-19 15:00S 05°17' E 011°23'0 0.5
2017-Sep-19 14:30S 05°17' E 011°23'4 8.4
2017-Sep-19 14:00S 05°20' E 011°25'1 2.8
2017-Sep-19 13:30S 05°19' E 011°24'1 1.3
2017-Sep-19 13:00S 05°20' E 011°25'1 0.7
2017-Sep-19 12:08S 05°20' E 011°25'0 3.3
2017-Sep-19 12:00S 05°20' E 011°25'0 0.7
2017-Sep-19 11:30S 05°21' E 011°25'1 1.4
2017-Sep-19 11:00S 05°21' E 011°25'0 0.8
2017-Sep-19 10:30S 05°21' E 011°26'2 4.2
2017-Sep-19 10:00S 05°20' E 011°24'1 1.5
2017-Sep-19 09:30S 05°20' E 011°24'1 1.4
2017-Sep-19 09:00S 05°21' E 011°25'0 0.2
2017-Sep-19 08:30S 05°20' E 011°25'1 1.9
2017-Sep-19 07:58S 05°20' E 011°24'1 1.3
2017-Sep-19 07:29S 05°20' E 011°25'1 1.5
2017-Sep-19 07:00S 05°21' E 011°25'0 0.3
2017-Sep-19 06:30S 05°20' E 011°26'1 2.8
2017-Sep-19 06:00S 05°20' E 011°24'0 0.1
2017-Sep-19 05:30S 05°20' E 011°24'1 1.2
2017-Sep-19 05:00S 05°20' E 011°25'1 1.1
2017-Sep-19 04:30S 05°21' E 011°25'0 0.6
2017-Sep-19 04:00S 05°20' E 011°25'1 1.9
2017-Sep-19 03:30S 05°20' E 011°24'1 1.3
2017-Sep-19 02:59S 05°20' E 011°25'1 1.3
2017-Sep-19 02:30S 05°20' E 011°26'1 1.6
2017-Sep-19 02:00S 05°20' E 011°25'1 1.1
2017-Sep-19 01:30S 05°20' E 011°24'1 1.3
2017-Sep-19 01:00S 05°20' E 011°25'0 0.8
2017-Sep-19 00:30S 05°21' E 011°25'1 1.5
2017-Sep-19 00:00S 05°20' E 011°25'0 0.9
2017-Sep-18 23:30S 05°20' E 011°25'0 0.6
2017-Sep-18 23:00S 05°21' E 011°25'0 0.6
2017-Sep-18 22:30S 05°21' E 011°25'1 2.3
2017-Sep-18 21:58S 05°20' E 011°25'0 0.8
2017-Sep-18 21:29S 05°20' E 011°25'0 0.7
2017-Sep-18 21:00S 05°20' E 011°25'0 0.6
2017-Sep-18 20:29S 05°20' E 011°24'0 0.9
2017-Sep-18 20:00S 05°20' E 011°24'0 0.9
2017-Sep-18 19:30S 05°21' E 011°25'0 0.9
2017-Sep-18 19:00S 05°21' E 011°25'1 1.9
2017-Sep-18 18:30S 05°20' E 011°25'0 0.9
2017-Sep-18 18:00S 05°21' E 011°24'0 0.7
2017-Sep-18 17:30S 05°20' E 011°25'1 1.5
2017-Sep-18 16:59S 05°20' E 011°25'0 0.8
2017-Sep-18 16:30S 05°20' E 011°25'0 0.8
2017-Sep-18 16:00S 05°20' E 011°25'0 0.9
2017-Sep-18 15:26S 05°21' E 011°24'0 0.7
2017-Sep-18 15:00S 05°21' E 011°24'2 3.3
2017-Sep-18 14:29S 05°20' E 011°25'2 3.6
2017-Sep-18 14:00S 05°18' E 011°24'1 2.0
2017-Sep-18 13:27S 05°18' E 011°23'1 2.5
2017-Sep-18 13:00S 05°17' E 011°23'1 1.0
2017-Sep-18 12:30S 05°17' E 011°23'0 0.2
2017-Sep-18 12:00S 05°17' E 011°23'0 0.5
2017-Sep-18 11:30S 05°17' E 011°24'5 9.5
2017-Sep-18 11:00S 05°21' E 011°25'2 3.3
2017-Sep-18 10:30S 05°23' E 011°26'3 5.5
2017-Sep-18 10:00S 05°21' E 011°24'1 1.4
2017-Sep-18 09:30S 05°20' E 011°25'1 1.1
2017-Sep-18 09:00S 05°20' E 011°25'1 1.2
2017-Sep-18 08:30S 05°20' E 011°25'1 1.1
2017-Sep-18 08:00S 05°20' E 011°24'1 1.6
2017-Sep-18 07:30S 05°20' E 011°25'0 0.8
2017-Sep-18 06:58S 05°20' E 011°25'1 1.1
2017-Sep-18 06:30S 05°20' E 011°25'1 1.1
2017-Sep-18 06:00S 05°21' E 011°24'0 0.9
2017-Sep-18 05:30S 05°21' E 011°24'2 3.3
2017-Sep-18 05:00S 05°19' E 011°25'0 0.9
2017-Sep-18 04:30S 05°20' E 011°25'0 0.9
2017-Sep-18 04:00S 05°20' E 011°24'0 0.8
2017-Sep-18 03:30S 05°20' E 011°24'0 0.9
2017-Sep-18 03:00S 05°20' E 011°24'1 2.8
2017-Sep-18 02:30S 05°19' E 011°26'0 0.9
2017-Sep-18 02:00S 05°20' E 011°25'1 1.0
2017-Sep-18 01:30S 05°20' E 011°25'1 1.1
2017-Sep-18 01:00S 05°20' E 011°24'1 1.0
2017-Sep-18 00:30S 05°20' E 011°24'1 1.8
2017-Sep-18 00:00S 05°20' E 011°25'1 1.6
2017-Sep-17 23:30S 05°20' E 011°26'1 1.2
2017-Sep-17 23:00S 05°20' E 011°25'1 1.1
2017-Sep-17 22:30S 05°20' E 011°25'0 1.0
2017-Sep-17 21:59S 05°21' E 011°24'2 3.2
2017-Sep-17 21:30S 05°20' E 011°26'1 1.2
2017-Sep-17 21:00S 05°20' E 011°25'0 0.9
2017-Sep-17 20:30S 05°20' E 011°25'0 0.9
2017-Sep-17 20:00S 05°21' E 011°24'2 3.0
2017-Sep-17 19:29S 05°20' E 011°26'0 0.9
2017-Sep-17 19:00S 05°20' E 011°25'0 1.0
2017-Sep-17 18:30S 05°21' E 011°25'0 0.9
2017-Sep-17 18:00S 05°21' E 011°25'2 3.0
2017-Sep-17 17:30S 05°19' E 011°25'0 1.0
2017-Sep-17 17:00S 05°20' E 011°25'0 0.9
2017-Sep-17 16:30S 05°20' E 011°25'0 0.9
2017-Sep-17 16:00S 05°21' E 011°25'0 0.5
2017-Sep-17 15:30S 05°21' E 011°25'1 2.8
2017-Sep-17 14:58S 05°19' E 011°26'0 1.0
2017-Sep-17 14:29S 05°20' E 011°25'0 0.9
2017-Sep-17 14:00S 05°20' E 011°25'1 1.0
2017-Sep-17 13:30S 05°21' E 011°25'1 1.1
2017-Sep-17 13:00S 05°21' E 011°25'1 2.9
2017-Sep-17 12:30S 05°20' E 011°25'0 1.0
2017-Sep-17 12:00S 05°19' E 011°25'1 1.1
2017-Sep-17 11:23S 05°20' E 011°25'0 1.1
2017-Sep-17 11:00S 05°20' E 011°25'0 0.9
2017-Sep-17 10:29S 05°21' E 011°25'1 1.4
2017-Sep-17 10:00S 05°20' E 011°25'1 1.3
2017-Sep-17 09:30S 05°19' E 011°25'0 0.9
2017-Sep-17 09:00S 05°20' E 011°25'0 0.9
2017-Sep-17 08:30S 05°20' E 011°25'0 0.9
2017-Sep-17 08:00S 05°21' E 011°25'0 0.9
2017-Sep-17 07:30S 05°21' E 011°24'1 1.3
2017-Sep-17 07:00S 05°21' E 011°25'1 2.7
2017-Sep-17 06:30S 05°19' E 011°25'0 0.8
2017-Sep-17 06:00S 05°20' E 011°25'0 0.8
2017-Sep-17 05:30S 05°20' E 011°25'0 0.7
2017-Sep-17 05:00S 05°20' E 011°25'0 0.3
2017-Sep-17 04:30S 05°21' E 011°25'1 2.7
2017-Sep-17 04:00S 05°19' E 011°25'1 1.2
2017-Sep-17 03:30S 05°20' E 011°25'1 1.3
2017-Sep-17 03:00S 05°20' E 011°25'1 1.2
2017-Sep-17 02:30S 05°21' E 011°25'1 2.9
2017-Sep-17 02:00S 05°20' E 011°25'0 0.5
2017-Sep-17 01:30S 05°19' E 011°25'1 1.4
2017-Sep-17 01:00S 05°20' E 011°25'1 1.6
2017-Sep-17 00:29S 05°21' E 011°25'1 2.1
2017-Sep-17 00:00S 05°20' E 011°25'1 1.4
2017-Sep-16 23:30S 05°19' E 011°25'1 1.6
2017-Sep-16 22:59S 05°20' E 011°25'1 1.6
2017-Sep-16 22:30S 05°21' E 011°25'1 2.3
2017-Sep-16 22:00S 05°20' E 011°25'0 0.6
2017-Sep-16 21:30S 05°19' E 011°25'1 1.4
2017-Sep-16 21:00S 05°20' E 011°25'1 1.6
2017-Sep-16 20:30S 05°21' E 011°25'1 2.0
2017-Sep-16 20:00S 05°20' E 011°25'0 0.5
2017-Sep-16 19:30S 05°20' E 011°25'1 1.7
2017-Sep-16 19:00S 05°20' E 011°25'0 0.4
2017-Sep-16 18:30S 05°21' E 011°25'1 2.7
2017-Sep-16 18:00S 05°19' E 011°24'1 1.7
2017-Sep-16 17:29S 05°20' E 011°25'0 0.6
2017-Sep-16 17:00S 05°21' E 011°25'1 2.6
2017-Sep-16 16:29S 05°19' E 011°25'1 1.6
2017-Sep-16 16:00S 05°20' E 011°25'1 1.7
2017-Sep-16 15:30S 05°19' E 011°25'1 1.6
2017-Sep-16 15:00S 05°20' E 011°25'1 1.6
2017-Sep-16 14:30S 05°21' E 011°25'0 0.7
2017-Sep-16 14:00S 05°20' E 011°25'1 2.9
2017-Sep-16 13:30S 05°19' E 011°25'1 1.9
2017-Sep-16 13:00S 05°20' E 011°25'1 1.8
2017-Sep-16 12:30S 05°21' E 011°25'0 0.8
2017-Sep-16 12:00S 05°20' E 011°25'1 2.3
2017-Sep-16 11:30S 05°19' E 011°24'1 2.0
2017-Sep-16 11:00S 05°20' E 011°24'1 1.1
2017-Sep-16 10:30S 05°20' E 011°25'1 1.9
2017-Sep-16 10:00S 05°20' E 011°26'1 2.0
2017-Sep-16 09:30S 05°21' E 011°25'1 1.7
2017-Sep-16 08:59S 05°20' E 011°25'1 2.4
2017-Sep-16 08:29S 05°19' E 011°25'1 1.1
2017-Sep-16 08:00S 05°19' E 011°25'1 1.1
2017-Sep-16 07:30S 05°20' E 011°25'1 1.8
2017-Sep-16 07:00S 05°21' E 011°25'1 1.0
2017-Sep-16 06:30S 05°20' E 011°25'0 0.8
2017-Sep-16 05:59S 05°20' E 011°25'1 1.6
2017-Sep-16 05:30S 05°20' E 011°25'0 0.6
2017-Sep-16 05:00S 05°20' E 011°25'0 0.8
2017-Sep-16 04:29S 05°20' E 011°25'1 1.7
2017-Sep-16 04:00S 05°21' E 011°25'0 0.3
2017-Sep-16 03:30S 05°21' E 011°25'1 2.8
2017-Sep-16 03:00S 05°19' E 011°25'1 1.0
2017-Sep-16 02:30S 05°20' E 011°25'1 1.6
2017-Sep-16 02:00S 05°21' E 011°25'1 1.8
2017-Sep-16 01:30S 05°20' E 011°25'0 0.3
2017-Sep-16 00:57S 05°20' E 011°25'1 1.6
2017-Sep-16 00:30S 05°21' E 011°25'1 2.6
2017-Sep-16 00:00S 05°19' E 011°25'0 0.6
2017-Sep-15 23:30S 05°20' E 011°25'1 1.6
2017-Sep-15 23:00S 05°20' E 011°25'1 1.6
2017-Sep-15 22:30S 05°20' E 011°25'0 0.1
2017-Sep-15 22:00S 05°20' E 011°25'1 1.4
2017-Sep-15 21:30S 05°20' E 011°25'0 0.1
2017-Sep-15 21:00S 05°20' E 011°25'1 1.3
2017-Sep-15 20:30S 05°21' E 011°25'2 3.1
2017-Sep-15 20:00S 05°19' E 011°25'0 0.7
2017-Sep-15 19:30S 05°20' E 011°25'1 1.1
2017-Sep-15 19:00S 05°20' E 011°25'1 1.2
2017-Sep-15 18:30S 05°21' E 011°25'1 2.6
2017-Sep-15 18:00S 05°20' E 011°24'0 0.2
2017-Sep-15 17:30S 05°20' E 011°25'1 1.2
2017-Sep-15 17:00S 05°20' E 011°25'0 0.9
2017-Sep-15 16:30S 05°20' E 011°25'0 0.4
2017-Sep-15 15:59S 05°20' E 011°25'0 0.9
2017-Sep-15 15:29S 05°20' E 011°25'1 1.5
2017-Sep-15 14:59S 05°20' E 011°25'1 1.4
2017-Sep-15 14:30S 05°20' E 011°25'0 0.8
2017-Sep-15 14:00S 05°20' E 011°25'0 0.5
2017-Sep-15 13:30S 05°20' E 011°25'1 1.4
2017-Sep-15 13:00S 05°20' E 011°25'1 1.7
2017-Sep-15 12:30S 05°20' E 011°25'1 1.5
2017-Sep-15 11:59S 05°20' E 011°25'0 0.8
2017-Sep-15 11:30S 05°20' E 011°25'1 1.1
2017-Sep-15 10:53S 05°19' E 011°25'1 1.7
2017-Sep-15 10:28S 05°20' E 011°25'1 1.5
2017-Sep-15 10:00S 05°21' E 011°25'1 2.4
2017-Sep-15 09:30S 05°20' E 011°25'0 0.2
2017-Sep-15 08:51S 05°19' E 011°25'1 1.4
2017-Sep-15 08:30S 05°20' E 011°25'1 1.3
2017-Sep-15 08:00S 05°21' E 011°25'1 1.6
2017-Sep-15 07:30S 05°20' E 011°25'0 0.6
2017-Sep-15 07:00S 05°20' E 011°24'1 1.2
2017-Sep-15 06:30S 05°20' E 011°24'0 0.7
2017-Sep-15 06:00S 05°20' E 011°25'1 1.5
2017-Sep-15 05:30S 05°19' E 011°25'1 1.1
2017-Sep-15 05:00S 05°20' E 011°25'1 1.1
2017-Sep-15 04:29S 05°20' E 011°25'0 0.5
2017-Sep-15 04:00S 05°21' E 011°25'1 2.5
2017-Sep-15 03:30S 05°20' E 011°24'1 1.2
2017-Sep-15 03:00S 05°20' E 011°24'1 1.2
2017-Sep-15 02:30S 05°21' E 011°25'2 3.5
2017-Sep-15 02:00S 05°19' E 011°25'0 0.6
2017-Sep-15 01:30S 05°19' E 011°25'1 1.5
2017-Sep-15 01:00S 05°20' E 011°25'1 1.5
2017-Sep-15 00:30S 05°21' E 011°25'1 2.3
2017-Sep-15 00:00S 05°20' E 011°25'1 1.3
2017-Sep-14 23:30S 05°19' E 011°25'1 1.6
2017-Sep-14 23:00S 05°20' E 011°25'0 0.1
2017-Sep-14 22:30S 05°20' E 011°25'1 1.9
2017-Sep-14 22:00S 05°19' E 011°25'1 1.2
2017-Sep-14 21:30S 05°20' E 011°25'1 1.1
2017-Sep-14 21:00S 05°20' E 011°25'1 1.0
2017-Sep-14 20:30S 05°21' E 011°25'1 2.6
2017-Sep-14 20:00S 05°19' E 011°25'0 0.8
2017-Sep-14 19:30S 05°20' E 011°25'0 0.8
2017-Sep-14 19:00S 05°20' E 011°25'0 0.8
2017-Sep-14 18:30S 05°21' E 011°25'1 1.3
2017-Sep-14 18:00S 05°20' E 011°25'1 1.8
2017-Sep-14 17:30S 05°19' E 011°24'0 0.7
2017-Sep-14 17:00S 05°20' E 011°25'0 0.7
2017-Sep-14 16:30S 05°20' E 011°25'0 0.7
2017-Sep-14 16:00S 05°20' E 011°25'0 0.7
2017-Sep-14 15:30S 05°21' E 011°25'0 0.6
2017-Sep-14 14:59S 05°21' E 011°25'2 3.3
2017-Sep-14 14:30S 05°19' E 011°25'0 0.1
2017-Sep-14 14:00S 05°19' E 011°24'0 0.8
2017-Sep-14 13:30S 05°20' E 011°25'0 0.8
2017-Sep-14 13:00S 05°20' E 011°25'0 0.9
2017-Sep-14 12:30S 05°20' E 011°25'0 0.9
2017-Sep-14 12:00S 05°21' E 011°25'2 3.0
2017-Sep-14 11:30S 05°19' E 011°25'0 1.0
2017-Sep-14 11:00S 05°20' E 011°25'1 1.1
2017-Sep-14 10:29S 05°20' E 011°25'0 0.6
2017-Sep-14 10:00S 05°21' E 011°25'2 3.5
2017-Sep-14 09:28S 05°19' E 011°25'0 0.9
2017-Sep-14 09:00S 05°19' E 011°25'1 1.1
2017-Sep-14 08:30S 05°20' E 011°25'1 1.1
2017-Sep-14 08:00S 05°20' E 011°25'0 0.5
2017-Sep-14 07:30S 05°21' E 011°25'1 2.4
2017-Sep-14 07:00S 05°20' E 011°24'0 1.0
2017-Sep-14 06:30S 05°20' E 011°25'0 1.0
2017-Sep-14 06:00S 05°20' E 011°25'0 0.9
2017-Sep-14 05:30S 05°21' E 011°25'1 2.6
2017-Sep-14 05:00S 05°20' E 011°24'0 0.8
2017-Sep-14 04:30S 05°20' E 011°25'0 0.9
2017-Sep-14 04:00S 05°20' E 011°25'0 0.9
2017-Sep-14 03:30S 05°21' E 011°25'1 2.5
2017-Sep-14 03:00S 05°20' E 011°24'0 0.3
2017-Sep-14 02:30S 05°20' E 011°24'1 1.0
2017-Sep-14 02:00S 05°20' E 011°25'0 0.3
2017-Sep-14 01:30S 05°20' E 011°25'1 2.3
2017-Sep-14 01:00S 05°19' E 011°24'1 1.0
2017-Sep-14 00:30S 05°20' E 011°25'1 1.0
2017-Sep-14 00:00S 05°20' E 011°25'0 1.0
2017-Sep-13 23:30S 05°21' E 011°25'1 2.8
2017-Sep-13 23:00S 05°20' E 011°24'0 0.6
2017-Sep-13 22:30S 05°20' E 011°25'0 0.1
2017-Sep-13 22:00S 05°20' E 011°25'0 0.6
2017-Sep-13 21:30S 05°20' E 011°24'1 1.1
2017-Sep-13 21:00S 05°20' E 011°25'1 1.1
2017-Sep-13 20:30S 05°20' E 011°25'1 1.2
2017-Sep-13 20:00S 05°20' E 011°25'0 0.9
2017-Sep-13 19:30S 05°20' E 011°25'0 0.4
2017-Sep-13 19:00S 05°21' E 011°25'1 2.0
2017-Sep-13 18:30S 05°20' E 011°25'0 1.0
2017-Sep-13 18:00S 05°20' E 011°25'0 0.9
2017-Sep-13 17:30S 05°20' E 011°25'0 0.7
2017-Sep-13 17:00S 05°21' E 011°25'2 4.0
2017-Sep-13 16:30S 05°23' E 011°26'0 0.8
2017-Sep-13 15:59S 05°22' E 011°26'3 5.4
2017-Sep-13 15:30S 05°20' E 011°25'1 1.0
2017-Sep-13 14:59S 05°20' E 011°25'0 0.3
2017-Sep-13 14:29S 05°20' E 011°25'1 2.9
2017-Sep-13 14:00S 05°20' E 011°24'0 0.8
2017-Sep-13 13:30S 05°20' E 011°24'0 0.8
2017-Sep-13 13:00S 05°20' E 011°24'1 1.2
2017-Sep-13 12:30S 05°21' E 011°25'2 3.1
2017-Sep-13 12:00S 05°20' E 011°24'0 0.9
2017-Sep-13 11:30S 05°20' E 011°24'1 1.1
2017-Sep-13 11:00S 05°20' E 011°25'1 1.0
2017-Sep-13 10:30S 05°21' E 011°25'1 3.0
2017-Sep-13 10:00S 05°19' E 011°24'1 1.3
2017-Sep-13 09:30S 05°20' E 011°25'1 1.3
2017-Sep-13 09:00S 05°21' E 011°25'1 2.9
2017-Sep-13 08:30S 05°19' E 011°24'0 0.2
2017-Sep-13 08:00S 05°19' E 011°24'0 0.9
2017-Sep-13 07:30S 05°20' E 011°25'1 1.0
2017-Sep-13 06:57S 05°20' E 011°25'0 1.0
2017-Sep-13 06:30S 05°21' E 011°25'1 1.7
2017-Sep-13 06:00S 05°20' E 011°25'0 0.3
2017-Sep-13 05:30S 05°20' E 011°25'0 0.9
2017-Sep-13 05:00S 05°20' E 011°25'0 0.9
2017-Sep-13 04:30S 05°21' E 011°25'1 1.4
2017-Sep-13 04:00S 05°20' E 011°25'1 1.3
2017-Sep-13 03:30S 05°19' E 011°24'1 1.2
2017-Sep-13 03:00S 05°20' E 011°25'1 1.3
2017-Sep-13 02:30S 05°21' E 011°25'1 1.2
2017-Sep-13 02:00S 05°20' E 011°25'1 1.4
2017-Sep-13 01:30S 05°19' E 011°24'1 1.2
2017-Sep-13 01:00S 05°20' E 011°25'1 1.2
2017-Sep-13 00:30S 05°21' E 011°25'1 2.3
2017-Sep-13 00:00S 05°19' E 011°25'0 0.5
2017-Sep-12 23:29S 05°19' E 011°25'1 1.2
2017-Sep-12 23:00S 05°20' E 011°25'1 1.5
2017-Sep-12 22:30S 05°19' E 011°25'0 0.2
2017-Sep-12 21:59S 05°19' E 011°25'1 1.2
2017-Sep-12 21:28S 05°20' E 011°25'1 1.2
2017-Sep-12 21:00S 05°20' E 011°25'0 0.2
2017-Sep-12 20:30S 05°20' E 011°25'1 1.4
2017-Sep-12 20:00S 05°20' E 011°25'1 1.3
2017-Sep-12 19:30S 05°20' E 011°25'0 0.7
2017-Sep-12 19:00S 05°21' E 011°25'1 2.4
2017-Sep-12 18:30S 05°20' E 011°25'1 1.3
2017-Sep-12 18:00S 05°20' E 011°25'1 1.2
2017-Sep-12 17:30S 05°21' E 011°25'1 1.5
2017-Sep-12 17:00S 05°20' E 011°25'1 1.2
2017-Sep-12 16:30S 05°19' E 011°25'1 1.1
2017-Sep-12 16:00S 05°20' E 011°25'1 1.3
2017-Sep-12 15:30S 05°21' E 011°25'1 2.0
2017-Sep-12 15:00S 05°20' E 011°24'0 0.3
2017-Sep-12 14:30S 05°20' E 011°24'1 1.5
2017-Sep-12 14:00S 05°20' E 011°25'0 0.6
2017-Sep-12 13:30S 05°20' E 011°25'1 1.3
2017-Sep-12 12:59S 05°19' E 011°25'0 0.8
2017-Sep-12 12:30S 05°20' E 011°25'0 0.9
2017-Sep-12 12:00S 05°20' E 011°25'0 0.8
2017-Sep-12 11:30S 05°21' E 011°25'0 1.0
2017-Sep-12 11:00S 05°21' E 011°25'1 1.6
2017-Sep-12 10:30S 05°20' E 011°24'1 1.2
2017-Sep-12 10:00S 05°21' E 011°25'0 1.0
2017-Sep-12 09:30S 05°21' E 011°25'2 3.8
2017-Sep-12 08:57S 05°19' E 011°24'0 0.5
2017-Sep-12 08:30S 05°19' E 011°24'0 0.7
2017-Sep-12 08:00S 05°20' E 011°25'0 0.8
2017-Sep-12 07:26S 05°20' E 011°25'0 0.8
2017-Sep-12 06:59S 05°20' E 011°25'0 0.8
2017-Sep-12 06:30S 05°21' E 011°25'0 0.7
2017-Sep-12 06:00S 05°21' E 011°25'1 2.4
2017-Sep-12 05:30S 05°20' E 011°24'0 0.1
2017-Sep-12 05:00S 05°20' E 011°24'0 0.9
2017-Sep-12 04:30S 05°20' E 011°25'1 1.0
2017-Sep-12 04:00S 05°21' E 011°25'0 0.9
2017-Sep-12 03:30S 05°21' E 011°25'2 3.1
2017-Sep-12 03:00S 05°20' E 011°25'0 0.7
2017-Sep-12 02:30S 05°20' E 011°25'1 1.2
2017-Sep-12 02:00S 05°21' E 011°25'  
Track history (hours):
 
Tides and Currents Weather Stations Pressure Air Temp Water Temp Dewpoint Dewpoint Depression Visibility Wind Speed Wind Dir Waves Ship Positions

Karol W

Last reported at 2017-Sep-22 02:00 UTC. Time now 2017-Sep-22 02:42 UTC.
Position S 05°20' E 011°25'.

Length 54 m; draft 2.1 m.

Type: Ship. MMSI: 229915000.

Date/timePositionNaut miles runAvg speedWind from/ knotsBaromVisibWave heightAir tempDewpointWater temp
2017-Sep-22 02:00S 05°20' E 011°25'0 0.4
2017-Sep-22 01:30S 05°20' E 011°25'0 0.5
2017-Sep-22 01:00S 05°20' E 011°25'0 0.4
2017-Sep-22 00:30S 05°20' E 011°25'0 0.6
2017-Sep-22 00:00S 05°20' E 011°25'0 0.2
2017-Sep-21 23:30S 05°20' E 011°25'0 0.5
2017-Sep-21 22:59S 05°20' E 011°25'0 0.7
2017-Sep-21 22:30S 05°21' E 011°24'0 0.4
2017-Sep-21 22:00S 05°21' E 011°24'0 0.3
2017-Sep-21 21:30S 05°21' E 011°24'0 0.8
2017-Sep-21 21:00S 05°21' E 011°25'0 0.9
2017-Sep-21 20:30S 05°21' E 011°25'2 3.2
2017-Sep-21 20:00S 05°19' E 011°24'0 0.8
2017-Sep-21 19:30S 05°20' E 011°25'0 0.7
2017-Sep-21 19:00S 05°20' E 011°25'0 0.9
2017-Sep-21 18:30S 05°20' E 011°25'1 1.1
2017-Sep-21 18:00S 05°21' E 011°25'1 1.1
2017-Sep-21 17:30S 05°21' E 011°26'1 1.9
2017-Sep-21 17:00S 05°20' E 011°25'1 1.6
2017-Sep-21 16:30S 05°20' E 011°24'1 1.0
2017-Sep-21 16:00S 05°20' E 011°25'1 1.1
2017-Sep-21 15:30S 05°20' E 011°25'0 0.4
2017-Sep-21 15:00S 05°20' E 011°25'1 2.5
2017-Sep-21 14:30S 05°20' E 011°24'0 0.9
2017-Sep-21 13:59S 05°20' E 011°24'1 1.2
2017-Sep-21 13:30S 05°20' E 011°25'2 3.1
2017-Sep-21 13:00S 05°19' E 011°24'2 3.2
2017-Sep-21 12:30S 05°20' E 011°25'1 1.1
2017-Sep-21 12:00S 05°20' E 011°25'0 0.5
2017-Sep-21 11:30S 05°20' E 011°25'1 2.5
2017-Sep-21 11:00S 05°20' E 011°24'1 1.1
2017-Sep-21 10:29S 05°20' E 011°25'1 1.1
2017-Sep-21 10:00S 05°20' E 011°25'1 1.1
2017-Sep-21 08:57S 05°21' E 011°26'2 4.6
2017-Sep-21 08:30S 05°20' E 011°24'0 0.1
2017-Sep-21 08:00S 05°20' E 011°24'1 1.1
2017-Sep-21 07:30S 05°20' E 011°25'1 1.1
2017-Sep-21 06:59S 05°20' E 011°25'1 1.5
2017-Sep-21 06:30S 05°20' E 011°25'0 1.0
2017-Sep-21 05:59S 05°20' E 011°24'0 0.7
2017-Sep-21 05:30S 05°20' E 011°25'0 0.8
2017-Sep-21 05:00S 05°20' E 011°25'0 0.9
2017-Sep-21 04:27S 05°20' E 011°26'1 2.8
2017-Sep-21 04:00S 05°20' E 011°24'0 0.4
2017-Sep-21 03:29S 05°20' E 011°25'0 0.9
2017-Sep-21 03:00S 05°20' E 011°25'0 0.9
2017-Sep-21 02:29S 05°20' E 011°25'0 0.9
2017-Sep-21 02:00S 05°21' E 011°26'1 2.3
2017-Sep-21 01:30S 05°20' E 011°25'0 0.4
2017-Sep-21 00:59S 05°20' E 011°25'1 1.1
2017-Sep-21 00:27S 05°20' E 011°25'1 1.0
2017-Sep-20 23:43S 05°20' E 011°26'0 0.2
2017-Sep-20 23:29S 05°20' E 011°26'2 3.4
2017-Sep-20 23:00S 05°20' E 011°24'0 0.7
2017-Sep-20 22:30S 05°20' E 011°25'0 0.3
2017-Sep-20 22:00S 05°20' E 011°25'0 0.8
2017-Sep-20 21:30S 05°20' E 011°24'0 0.4
2017-Sep-20 21:00S 05°20' E 011°25'0 0.3
2017-Sep-20 20:30S 05°20' E 011°25'0 0.3
2017-Sep-20 20:00S 05°20' E 011°25'814.5
2017-Sep-20 19:29S 05°14' E 011°30'917.7
2017-Sep-20 18:59S 05°08' E 011°36'8 1.2
2017-Sep-20 12:19S 05°14' E 011°31'516.2
2017-Sep-20 12:00S 05°17' E 011°28'4 8.3
2017-Sep-20 11:30S 05°21' E 011°25'1 1.4
2017-Sep-20 11:00S 05°21' E 011°24'1 1.1
2017-Sep-20 10:30S 05°21' E 011°25'2 4.3
2017-Sep-20 10:00S 05°23' E 011°26'0 0.1
2017-Sep-20 09:30S 05°23' E 011°26'3 6.6
2017-Sep-20 09:00S 05°20' E 011°24'1 1.1
2017-Sep-20 08:30S 05°20' E 011°25'0 0.6
2017-Sep-20 08:00S 05°20' E 011°25'1 1.6
2017-Sep-20 07:30S 05°20' E 011°24'1 1.1
2017-Sep-20 07:00S 05°20' E 011°25'1 0.9
2017-Sep-20 06:21S 05°20' E 011°26'1 2.2
2017-Sep-20 06:00S 05°20' E 011°25'0 0.2
2017-Sep-20 05:30S 05°20' E 011°25'1 1.3
2017-Sep-20 04:50S 05°20' E 011°26'1 2.1
2017-Sep-20 04:30S 05°20' E 011°25'0 0.7
2017-Sep-20 04:00S 05°20' E 011°25'1 1.2
2017-Sep-20 03:28S 05°20' E 011°25'1 1.1
2017-Sep-20 02:45S 05°20' E 011°26'1 2.5
2017-Sep-20 02:29S 05°20' E 011°25'1 2.9
2017-Sep-20 02:00S 05°20' E 011°24'0 0.6
2017-Sep-20 01:30S 05°20' E 011°24'0 1.0
2017-Sep-20 01:00S 05°20' E 011°25'1 1.1
2017-Sep-20 00:28S 05°20' E 011°25'1 1.0
2017-Sep-19 23:55S 05°20' E 011°26'1 1.5
2017-Sep-19 23:30S 05°20' E 011°25'1 2.7
2017-Sep-19 23:00S 05°20' E 011°24'0 0.5
2017-Sep-19 22:30S 05°20' E 011°24'1 1.3
2017-Sep-19 22:00S 05°20' E 011°25'1 1.2
2017-Sep-19 21:29S 05°20' E 011°25'1 1.8
2017-Sep-19 21:00S 05°20' E 011°25'0 0.8
2017-Sep-19 20:30S 05°20' E 011°24'1 1.2
2017-Sep-19 20:00S 05°20' E 011°25'1 1.0
2017-Sep-19 19:29S 05°20' E 011°24'0 0.1
2017-Sep-19 19:00S 05°20' E 011°24'1 1.0
2017-Sep-19 18:30S 05°19' E 011°24'3 5.2
2017-Sep-19 18:00S 05°17' E 011°23'0 0.4
2017-Sep-19 17:30S 05°17' E 011°23'0 0.0
2017-Sep-19 17:00S 05°17' E 011°23'0 0.0
2017-Sep-19 16:30S 05°17' E 011°23'0 0.0
2017-Sep-19 16:00S 05°17' E 011°23'0 0.1
2017-Sep-19 15:30S 05°17' E 011°23'0 0.4
2017-Sep-19 15:00S 05°17' E 011°23'0 0.5
2017-Sep-19 14:30S 05°17' E 011°23'4 8.4
2017-Sep-19 14:00S 05°20' E 011°25'1 2.8
2017-Sep-19 13:30S 05°19' E 011°24'1 1.3
2017-Sep-19 13:00S 05°20' E 011°25'1 0.7
2017-Sep-19 12:08S 05°20' E 011°25'0 3.3
2017-Sep-19 12:00S 05°20' E 011°25'0 0.7
2017-Sep-19 11:30S 05°21' E 011°25'1 1.4
2017-Sep-19 11:00S 05°21' E 011°25'0 0.8
2017-Sep-19 10:30S 05°21' E 011°26'2 4.2
2017-Sep-19 10:00S 05°20' E 011°24'1 1.5
2017-Sep-19 09:30S 05°20' E 011°24'1 1.4
2017-Sep-19 09:00S 05°21' E 011°25'0 0.2
2017-Sep-19 08:30S 05°20' E 011°25'1 1.9
2017-Sep-19 07:58S 05°20' E 011°24'1 1.3
2017-Sep-19 07:29S 05°20' E 011°25'1 1.5
2017-Sep-19 07:00S 05°21' E 011°25'0 0.3
2017-Sep-19 06:30S 05°20' E 011°26'1 2.8
2017-Sep-19 06:00S 05°20' E 011°24'0 0.1
2017-Sep-19 05:30S 05°20' E 011°24'1 1.2
2017-Sep-19 05:00S 05°20' E 011°25'1 1.1
2017-Sep-19 04:30S 05°21' E 011°25'0 0.6
2017-Sep-19 04:00S 05°20' E 011°25'1 1.9
2017-Sep-19 03:30S 05°20' E 011°24'1 1.3
2017-Sep-19 02:59S 05°20' E 011°25'1 1.3
2017-Sep-19 02:30S 05°20' E 011°26'1 1.6
2017-Sep-19 02:00S 05°20' E 011°25'1 1.1
2017-Sep-19 01:30S 05°20' E 011°24'1 1.3
2017-Sep-19 01:00S 05°20' E 011°25'0 0.8
2017-Sep-19 00:30S 05°21' E 011°25'1 1.5
2017-Sep-19 00:00S 05°20' E 011°25'0 0.9
2017-Sep-18 23:30S 05°20' E 011°25'0 0.6
2017-Sep-18 23:00S 05°21' E 011°25'0 0.6
2017-Sep-18 22:30S 05°21' E 011°25'1 2.3
2017-Sep-18 21:58S 05°20' E 011°25'0 0.8
2017-Sep-18 21:29S 05°20' E 011°25'0 0.7
2017-Sep-18 21:00S 05°20' E 011°25'0 0.6
2017-Sep-18 20:29S 05°20' E 011°24'0 0.9
2017-Sep-18 20:00S 05°20' E 011°24'0 0.9
2017-Sep-18 19:30S 05°21' E 011°25'0 0.9
2017-Sep-18 19:00S 05°21' E 011°25'1 1.9
2017-Sep-18 18:30S 05°20' E 011°25'0 0.9
2017-Sep-18 18:00S 05°21' E 011°24'0 0.7
2017-Sep-18 17:30S 05°20' E 011°25'1 1.5
2017-Sep-18 16:59S 05°20' E 011°25'0 0.8
2017-Sep-18 16:30S 05°20' E 011°25'0 0.8
2017-Sep-18 16:00S 05°20' E 011°25'0 0.9
2017-Sep-18 15:26S 05°21' E 011°24'0 0.7
2017-Sep-18 15:00S 05°21' E 011°24'2 3.3
2017-Sep-18 14:29S 05°20' E 011°25'2 3.6
2017-Sep-18 14:00S 05°18' E 011°24'1 2.0
2017-Sep-18 13:27S 05°18' E 011°23'1 2.5
2017-Sep-18 13:00S 05°17' E 011°23'1 1.0
2017-Sep-18 12:30S 05°17' E 011°23'0 0.2
2017-Sep-18 12:00S 05°17' E 011°23'0 0.5
2017-Sep-18 11:30S 05°17' E 011°24'5 9.5
2017-Sep-18 11:00S 05°21' E 011°25'2 3.3
2017-Sep-18 10:30S 05°23' E 011°26'3 5.5
2017-Sep-18 10:00S 05°21' E 011°24'1 1.4
2017-Sep-18 09:30S 05°20' E 011°25'1 1.1
2017-Sep-18 09:00S 05°20' E 011°25'1 1.2
2017-Sep-18 08:30S 05°20' E 011°25'1 1.1
2017-Sep-18 08:00S 05°20' E 011°24'1 1.6
2017-Sep-18 07:30S 05°20' E 011°25'0 0.8
2017-Sep-18 06:58S 05°20' E 011°25'1 1.1
2017-Sep-18 06:30S 05°20' E 011°25'1 1.1
2017-Sep-18 06:00S 05°21' E 011°24'0 0.9
2017-Sep-18 05:30S 05°21' E 011°24'2 3.3
2017-Sep-18 05:00S 05°19' E 011°25'0 0.9
2017-Sep-18 04:30S 05°20' E 011°25'0 0.9
2017-Sep-18 04:00S 05°20' E 011°24'0 0.8
2017-Sep-18 03:30S 05°20' E 011°24'0 0.9
2017-Sep-18 03:00S 05°20' E 011°24'1 2.8
2017-Sep-18 02:30S 05°19' E 011°26'0 0.9
2017-Sep-18 02:00S 05°20' E 011°25'1 1.0
2017-Sep-18 01:30S 05°20' E 011°25'1 1.1
2017-Sep-18 01:00S 05°20' E 011°24'1 1.0
2017-Sep-18 00:30S 05°20' E 011°24'1 1.8
2017-Sep-18 00:00S 05°20' E 011°25'1 1.6
2017-Sep-17 23:30S 05°20' E 011°26'1 1.2
2017-Sep-17 23:00S 05°20' E 011°25'1 1.1
2017-Sep-17 22:30S 05°20' E 011°25'0 1.0
2017-Sep-17 21:59S 05°21' E 011°24'2 3.2
2017-Sep-17 21:30S 05°20' E 011°26'1 1.2
2017-Sep-17 21:00S 05°20' E 011°25'0 0.9
2017-Sep-17 20:30S 05°20' E 011°25'0 0.9
2017-Sep-17 20:00S 05°21' E 011°24'2 3.0
2017-Sep-17 19:29S 05°20' E 011°26'0 0.9
2017-Sep-17 19:00S 05°20' E 011°25'0 1.0
2017-Sep-17 18:30S 05°21' E 011°25'0 0.9
2017-Sep-17 18:00S 05°21' E 011°25'2 3.0
2017-Sep-17 17:30S 05°19' E 011°25'0 1.0
2017-Sep-17 17:00S 05°20' E 011°25'0 0.9
2017-Sep-17 16:30S 05°20' E 011°25'0 0.9
2017-Sep-17 16:00S 05°21' E 011°25'0 0.5
2017-Sep-17 15:30S 05°21' E 011°25'1 2.8
2017-Sep-17 14:58S 05°19' E 011°26'0 1.0
2017-Sep-17 14:29S 05°20' E 011°25'0 0.9
2017-Sep-17 14:00S 05°20' E 011°25'1 1.0
2017-Sep-17 13:30S 05°21' E 011°25'1 1.1
2017-Sep-17 13:00S 05°21' E 011°25'1 2.9
2017-Sep-17 12:30S 05°20' E 011°25'0 1.0
2017-Sep-17 12:00S 05°19' E 011°25'1 1.1
2017-Sep-17 11:23S 05°20' E 011°25'0 1.1
2017-Sep-17 11:00S 05°20' E 011°25'0 0.9
2017-Sep-17 10:29S 05°21' E 011°25'1 1.4
2017-Sep-17 10:00S 05°20' E 011°25'1 1.3
2017-Sep-17 09:30S 05°19' E 011°25'0 0.9
2017-Sep-17 09:00S 05°20' E 011°25'0 0.9
2017-Sep-17 08:30S 05°20' E 011°25'0 0.9
2017-Sep-17 08:00S 05°21' E 011°25'0 0.9
2017-Sep-17 07:30S 05°21' E 011°24'1 1.3
2017-Sep-17 07:00S 05°21' E 011°25'1 2.7
2017-Sep-17 06:30S 05°19' E 011°25'0 0.8
2017-Sep-17 06:00S 05°20' E 011°25'0 0.8
2017-Sep-17 05:30S 05°20' E 011°25'0 0.7
2017-Sep-17 05:00S 05°20' E 011°25'0 0.3
2017-Sep-17 04:30S 05°21' E 011°25'1 2.7
2017-Sep-17 04:00S 05°19' E 011°25'1 1.2
2017-Sep-17 03:30S 05°20' E 011°25'1 1.3
2017-Sep-17 03:00S 05°20' E 011°25'1 1.2
2017-Sep-17 02:30S 05°21' E 011°25'1 2.9
2017-Sep-17 02:00S 05°20' E 011°25'0 0.5
2017-Sep-17 01:30S 05°19' E 011°25'1 1.4
2017-Sep-17 01:00S 05°20' E 011°25'1 1.6
2017-Sep-17 00:29S 05°21' E 011°25'1 2.1
2017-Sep-17 00:00S 05°20' E 011°25'1 1.4
2017-Sep-16 23:30S 05°19' E 011°25'1 1.6
2017-Sep-16 22:59S 05°20' E 011°25'1 1.6
2017-Sep-16 22:30S 05°21' E 011°25'1 2.3
2017-Sep-16 22:00S 05°20' E 011°25'0 0.6
2017-Sep-16 21:30S 05°19' E 011°25'1 1.4
2017-Sep-16 21:00S 05°20' E 011°25'1 1.6
2017-Sep-16 20:30S 05°21' E 011°25'1 2.0
2017-Sep-16 20:00S 05°20' E 011°25'0 0.5
2017-Sep-16 19:30S 05°20' E 011°25'1 1.7
2017-Sep-16 19:00S 05°20' E 011°25'0 0.4
2017-Sep-16 18:30S 05°21' E 011°25'1 2.7
2017-Sep-16 18:00S 05°19' E 011°24'1 1.7
2017-Sep-16 17:29S 05°20' E 011°25'0 0.6
2017-Sep-16 17:00S 05°21' E 011°25'1 2.6
2017-Sep-16 16:29S 05°19' E 011°25'1 1.6
2017-Sep-16 16:00S 05°20' E 011°25'1 1.7
2017-Sep-16 15:30S 05°19' E 011°25'1 1.6
2017-Sep-16 15:00S 05°20' E 011°25'1 1.6
2017-Sep-16 14:30S 05°21' E 011°25'0 0.7
2017-Sep-16 14:00S 05°20' E 011°25'1 2.9
2017-Sep-16 13:30S 05°19' E 011°25'1 1.9
2017-Sep-16 13:00S 05°20' E 011°25'1 1.8
2017-Sep-16 12:30S 05°21' E 011°25'0 0.8
2017-Sep-16 12:00S 05°20' E 011°25'1 2.3
2017-Sep-16 11:30S 05°19' E 011°24'1 2.0
2017-Sep-16 11:00S 05°20' E 011°24'1 1.1
2017-Sep-16 10:30S 05°20' E 011°25'1 1.9
2017-Sep-16 10:00S 05°20' E 011°26'1 2.0
2017-Sep-16 09:30S 05°21' E 011°25'1 1.7
2017-Sep-16 08:59S 05°20' E 011°25'1 2.4
2017-Sep-16 08:29S 05°19' E 011°25'1 1.1
2017-Sep-16 08:00S 05°19' E 011°25'1 1.1
2017-Sep-16 07:30S 05°20' E 011°25'1 1.8
2017-Sep-16 07:00S 05°21' E 011°25'1 1.0
2017-Sep-16 06:30S 05°20' E 011°25'0 0.8
2017-Sep-16 05:59S 05°20' E 011°25'1 1.6
2017-Sep-16 05:30S 05°20' E 011°25'0 0.6
2017-Sep-16 05:00S 05°20' E 011°25'0 0.8
2017-Sep-16 04:29S 05°20' E 011°25'1 1.7
2017-Sep-16 04:00S 05°21' E 011°25'0 0.3
2017-Sep-16 03:30S 05°21' E 011°25'1 2.8
2017-Sep-16 03:00S 05°19' E 011°25'1 1.0
2017-Sep-16 02:30S 05°20' E 011°25'1 1.6
2017-Sep-16 02:00S 05°21' E 011°25'1 1.8
2017-Sep-16 01:30S 05°20' E 011°25'0 0.3
2017-Sep-16 00:57S 05°20' E 011°25'1 1.6
2017-Sep-16 00:30S 05°21' E 011°25'1 2.6
2017-Sep-16 00:00S 05°19' E 011°25'0 0.6
2017-Sep-15 23:30S 05°20' E 011°25'1 1.6
2017-Sep-15 23:00S 05°20' E 011°25'1 1.6
2017-Sep-15 22:30S 05°20' E 011°25'0 0.1
2017-Sep-15 22:00S 05°20' E 011°25'1 1.4
2017-Sep-15 21:30S 05°20' E 011°25'0 0.1
2017-Sep-15 21:00S 05°20' E 011°25'1 1.3
2017-Sep-15 20:30S 05°21' E 011°25'2 3.1
2017-Sep-15 20:00S 05°19' E 011°25'0 0.7
2017-Sep-15 19:30S 05°20' E 011°25'1 1.1
2017-Sep-15 19:00S 05°20' E 011°25'1 1.2
2017-Sep-15 18:30S 05°21' E 011°25'1 2.6
2017-Sep-15 18:00S 05°20' E 011°24'0 0.2
2017-Sep-15 17:30S 05°20' E 011°25'1 1.2
2017-Sep-15 17:00S 05°20' E 011°25'0 0.9
2017-Sep-15 16:30S 05°20' E 011°25'0 0.4
2017-Sep-15 15:59S 05°20' E 011°25'0 0.9
2017-Sep-15 15:29S 05°20' E 011°25'1 1.5
2017-Sep-15 14:59S 05°20' E 011°25'1 1.4
2017-Sep-15 14:30S 05°20' E 011°25'0 0.8
2017-Sep-15 14:00S 05°20' E 011°25'0 0.5
2017-Sep-15 13:30S 05°20' E 011°25'1 1.4
2017-Sep-15 13:00S 05°20' E 011°25'1 1.7
2017-Sep-15 12:30S 05°20' E 011°25'1 1.5
2017-Sep-15 11:59S 05°20' E 011°25'0 0.8
2017-Sep-15 11:30S 05°20' E 011°25'1 1.1
2017-Sep-15 10:53S 05°19' E 011°25'1 1.7
2017-Sep-15 10:28S 05°20' E 011°25'1 1.5
2017-Sep-15 10:00S 05°21' E 011°25'1 2.4
2017-Sep-15 09:30S 05°20' E 011°25'0 0.2
2017-Sep-15 08:51S 05°19' E 011°25'1 1.4
2017-Sep-15 08:30S 05°20' E 011°25'1 1.3
2017-Sep-15 08:00S 05°21' E 011°25'1 1.6
2017-Sep-15 07:30S 05°20' E 011°25'0 0.6
2017-Sep-15 07:00S 05°20' E 011°24'1 1.2
2017-Sep-15 06:30S 05°20' E 011°24'0 0.7
2017-Sep-15 06:00S 05°20' E 011°25'1 1.5
2017-Sep-15 05:30S 05°19' E 011°25'1 1.1
2017-Sep-15 05:00S 05°20' E 011°25'1 1.1
2017-Sep-15 04:29S 05°20' E 011°25'0 0.5
2017-Sep-15 04:00S 05°21' E 011°25'1 2.5
2017-Sep-15 03:30S 05°20' E 011°24'1 1.2
2017-Sep-15 03:00S 05°20' E 011°24'1 1.2
2017-Sep-15 02:30S 05°21' E 011°25'2 3.5
2017-Sep-15 02:00S 05°19' E 011°25'0 0.6
2017-Sep-15 01:30S 05°19' E 011°25'1 1.5
2017-Sep-15 01:00S 05°20' E 011°25'1 1.5
2017-Sep-15 00:30S 05°21' E 011°25'1 2.3
2017-Sep-15 00:00S 05°20' E 011°25'1 1.3
2017-Sep-14 23:30S 05°19' E 011°25'1 1.6
2017-Sep-14 23:00S 05°20' E 011°25'0 0.1
2017-Sep-14 22:30S 05°20' E 011°25'1 1.9
2017-Sep-14 22:00S 05°19' E 011°25'1 1.2
2017-Sep-14 21:30S 05°20' E 011°25'1 1.1
2017-Sep-14 21:00S 05°20' E 011°25'1 1.0
2017-Sep-14 20:30S 05°21' E 011°25'1 2.6
2017-Sep-14 20:00S 05°19' E 011°25'0 0.8
2017-Sep-14 19:30S 05°20' E 011°25'0 0.8
2017-Sep-14 19:00S 05°20' E 011°25'0 0.8
2017-Sep-14 18:30S 05°21' E 011°25'1 1.3
2017-Sep-14 18:00S 05°20' E 011°25'1 1.8
2017-Sep-14 17:30S 05°19' E 011°24'0 0.7
2017-Sep-14 17:00S 05°20' E 011°25'0 0.7
2017-Sep-14 16:30S 05°20' E 011°25'0 0.7
2017-Sep-14 16:00S 05°20' E 011°25'0 0.7
2017-Sep-14 15:30S 05°21' E 011°25'0 0.6
2017-Sep-14 14:59S 05°21' E 011°25'2 3.3
2017-Sep-14 14:30S 05°19' E 011°25'0 0.1
2017-Sep-14 14:00S 05°19' E 011°24'0 0.8
2017-Sep-14 13:30S 05°20' E 011°25'0 0.8
2017-Sep-14 13:00S 05°20' E 011°25'0 0.9
2017-Sep-14 12:30S 05°20' E 011°25'0 0.9
2017-Sep-14 12:00S 05°21' E 011°25'2 3.0
2017-Sep-14 11:30S 05°19' E 011°25'0 1.0
2017-Sep-14 11:00S 05°20' E 011°25'1 1.1
2017-Sep-14 10:29S 05°20' E 011°25'0 0.6
2017-Sep-14 10:00S 05°21' E 011°25'2 3.5
2017-Sep-14 09:28S 05°19' E 011°25'0 0.9
2017-Sep-14 09:00S 05°19' E 011°25'1 1.1
2017-Sep-14 08:30S 05°20' E 011°25'1 1.1
2017-Sep-14 08:00S 05°20' E 011°25'0 0.5
2017-Sep-14 07:30S 05°21' E 011°25'1 2.4
2017-Sep-14 07:00S 05°20' E 011°24'0 1.0
2017-Sep-14 06:30S 05°20' E 011°25'0 1.0
2017-Sep-14 06:00S 05°20' E 011°25'0 0.9
2017-Sep-14 05:30S 05°21' E 011°25'1 2.6
2017-Sep-14 05:00S 05°20' E 011°24'0 0.8
2017-Sep-14 04:30S 05°20' E 011°25'0 0.9
2017-Sep-14 04:00S 05°20' E 011°25'0 0.9
2017-Sep-14 03:30S 05°21' E 011°25'1 2.5
2017-Sep-14 03:00S 05°20' E 011°24'0 0.3
2017-Sep-14 02:30S 05°20' E 011°24'1 1.0
2017-Sep-14 02:00S 05°20' E 011°25'0 0.3
2017-Sep-14 01:30S 05°20' E 011°25'1 2.3
2017-Sep-14 01:00S 05°19' E 011°24'1 1.0
2017-Sep-14 00:30S 05°20' E 011°25'1 1.0
2017-Sep-14 00:00S 05°20' E 011°25'0 1.0
2017-Sep-13 23:30S 05°21' E 011°25'1 2.8
2017-Sep-13 23:00S 05°20' E 011°24'0 0.6
2017-Sep-13 22:30S 05°20' E 011°25'0 0.1
2017-Sep-13 22:00S 05°20' E 011°25'0 0.6
2017-Sep-13 21:30S 05°20' E 011°24'1 1.1
2017-Sep-13 21:00S 05°20' E 011°25'1 1.1
2017-Sep-13 20:30S 05°20' E 011°25'1 1.2
2017-Sep-13 20:00S 05°20' E 011°25'0 0.9
2017-Sep-13 19:30S 05°20' E 011°25'0 0.4
2017-Sep-13 19:00S 05°21' E 011°25'1 2.0
2017-Sep-13 18:30S 05°20' E 011°25'0 1.0
2017-Sep-13 18:00S 05°20' E 011°25'0 0.9
2017-Sep-13 17:30S 05°20' E 011°25'0 0.7
2017-Sep-13 17:00S 05°21' E 011°25'2 4.0
2017-Sep-13 16:30S 05°23' E 011°26'0 0.8
2017-Sep-13 15:59S 05°22' E 011°26'3 5.4
2017-Sep-13 15:30S 05°20' E 011°25'1 1.0
2017-Sep-13 14:59S 05°20' E 011°25'0 0.3
2017-Sep-13 14:29S 05°20' E 011°25'1 2.9
2017-Sep-13 14:00S 05°20' E 011°24'0 0.8
2017-Sep-13 13:30S 05°20' E 011°24'0 0.8
2017-Sep-13 13:00S 05°20' E 011°24'1 1.2
2017-Sep-13 12:30S 05°21' E 011°25'2 3.1
2017-Sep-13 12:00S 05°20' E 011°24'0 0.9
2017-Sep-13 11:30S 05°20' E 011°24'1 1.1
2017-Sep-13 11:00S 05°20' E 011°25'1 1.0
2017-Sep-13 10:30S 05°21' E 011°25'1 3.0
2017-Sep-13 10:00S 05°19' E 011°24'1 1.3
2017-Sep-13 09:30S 05°20' E 011°25'1 1.3
2017-Sep-13 09:00S 05°21' E 011°25'1 2.9
2017-Sep-13 08:30S 05°19' E 011°24'0 0.2
2017-Sep-13 08:00S 05°19' E 011°24'0 0.9
2017-Sep-13 07:30S 05°20' E 011°25'1 1.0
2017-Sep-13 06:57S 05°20' E 011°25'0 1.0
2017-Sep-13 06:30S 05°21' E 011°25'1 1.7
2017-Sep-13 06:00S 05°20' E 011°25'0 0.3
2017-Sep-13 05:30S 05°20' E 011°25'0 0.9
2017-Sep-13 05:00S 05°20' E 011°25'0 0.9
2017-Sep-13 04:30S 05°21' E 011°25'1 1.4
2017-Sep-13 04:00S 05°20' E 011°25'1 1.3
2017-Sep-13 03:30S 05°19' E 011°24'1 1.2
2017-Sep-13 03:00S 05°20' E 011°25'1 1.3
2017-Sep-13 02:30S 05°21' E 011°25'1 1.2
2017-Sep-13 02:00S 05°20' E 011°25'1 1.4
2017-Sep-13 01:30S 05°19' E 011°24'1 1.2
2017-Sep-13 01:00S 05°20' E 011°25'1 1.2
2017-Sep-13 00:30S 05°21' E 011°25'1 2.3
2017-Sep-13 00:00S 05°19' E 011°25'0 0.5
2017-Sep-12 23:29S 05°19' E 011°25'1 1.2
2017-Sep-12 23:00S 05°20' E 011°25'1 1.5
2017-Sep-12 22:30S 05°19' E 011°25'0 0.2
2017-Sep-12 21:59S 05°19' E 011°25'1 1.2
2017-Sep-12 21:28S 05°20' E 011°25'1 1.2
2017-Sep-12 21:00S 05°20' E 011°25'0 0.2
2017-Sep-12 20:30S 05°20' E 011°25'1 1.4
2017-Sep-12 20:00S 05°20' E 011°25'1 1.3
2017-Sep-12 19:30S 05°20' E 011°25'0 0.7
2017-Sep-12 19:00S 05°21' E 011°25'1 2.4
2017-Sep-12 18:30S 05°20' E 011°25'1 1.3
2017-Sep-12 18:00S 05°20' E 011°25'1 1.2
2017-Sep-12 17:30S 05°21' E 011°25'1 1.5
2017-Sep-12 17:00S 05°20' E 011°25'1 1.2
2017-Sep-12 16:30S 05°19' E 011°25'1 1.1
2017-Sep-12 16:00S 05°20' E 011°25'1 1.3
2017-Sep-12 15:30S 05°21' E 011°25'1 2.0
2017-Sep-12 15:00S 05°20' E 011°24'0 0.3
2017-Sep-12 14:30S 05°20' E 011°24'1 1.5
2017-Sep-12 14:00S 05°20' E 011°25'0 0.6
2017-Sep-12 13:30S 05°20' E 011°25'1 1.3
2017-Sep-12 12:59S 05°19' E 011°25'0 0.8
2017-Sep-12 12:30S 05°20' E 011°25'0 0.9
2017-Sep-12 12:00S 05°20' E 011°25'0 0.8
2017-Sep-12 11:30S 05°21' E 011°25'0 1.0
2017-Sep-12 11:00S 05°21' E 011°25'1 1.6
2017-Sep-12 10:30S 05°20' E 011°24'1 1.2
2017-Sep-12 10:00S 05°21' E 011°25'0 1.0
2017-Sep-12 09:30S 05°21' E 011°25'2 3.8
2017-Sep-12 08:57S 05°19' E 011°24'0 0.5
2017-Sep-12 08:30S 05°19' E 011°24'0 0.7
2017-Sep-12 08:00S 05°20' E 011°25'0 0.8
2017-Sep-12 07:26S 05°20' E 011°25'0 0.8
2017-Sep-12 06:59S 05°20' E 011°25'0 0.8
2017-Sep-12 06:30S 05°21' E 011°25'0 0.7
2017-Sep-12 06:00S 05°21' E 011°25'1 2.4
2017-Sep-12 05:30S 05°20' E 011°24'0 0.1
2017-Sep-12 05:00S 05°20' E 011°24'0 0.9
2017-Sep-12 04:30S 05°20' E 011°25'1 1.0
2017-Sep-12 04:00S 05°21' E 011°25'0 0.9
2017-Sep-12 03:30S 05°21' E 011°25'2 3.1
2017-Sep-12 03:00S 05°20' E 011°25'0 0.7
2017-Sep-12 02:30S 05°20' E 011°25'1 1.2
2017-Sep-12 02:00S 05°21' E 011°25'  

Dump ship's entire track history